createdAt,value
2023-04-24T00:00:10.189Z,99499.34
2023-04-24T00:02:47.875Z,99500.69
2023-04-24T00:05:22.076Z,99499.63
2023-04-24T00:07:55.565Z,99499.44
2023-04-24T00:10:28.804Z,99502.06
2023-04-24T00:13:03.061Z,99497.94
2023-04-24T00:15:37.206Z,99491.78
2023-04-24T00:18:11.751Z,99490.09
2023-04-24T00:20:45.122Z,99489.13
2023-04-24T00:23:18.484Z,99490.44
2023-04-24T00:25:51.397Z,99489.84
2023-04-24T00:28:24.461Z,99490.25
2023-04-24T00:30:57.857Z,99486.66
2023-04-24T00:33:32.426Z,99488.81
2023-04-24T00:36:05.739Z,99481.44
2023-04-24T00:38:38.657Z,99481.59
2023-04-24T00:41:11.654Z,99468.16
2023-04-24T00:43:44.628Z,99474.94
2023-04-24T00:46:18.403Z,99475.22
2023-04-24T00:48:52.938Z,99476.31
2023-04-24T00:51:26.004Z,99467.19
2023-04-24T00:53:59.247Z,99470.97
2023-04-24T00:56:32.408Z,99466.22
2023-04-24T00:59:06.057Z,99474.34
2023-04-24T01:01:43.072Z,99471.59
2023-04-24T01:04:19.318Z,99470.16
2023-04-24T01:06:53.582Z,99458.53
2023-04-24T01:09:27.208Z,99465.41
2023-04-24T01:12:03.108Z,99467.88
2023-04-24T01:14:36.879Z,99466.06
2023-04-24T01:17:10.638Z,99455.97
2023-04-24T01:19:46.189Z,99454.81
2023-04-24T01:22:20.540Z,99452.03
2023-04-24T01:24:54.053Z,99458.19
2023-04-24T01:27:27.606Z,99454.25
2023-04-24T01:30:01.443Z,99451.75
2023-04-24T01:32:34.486Z,99457.31
2023-04-24T01:35:08.521Z,99457.28
2023-04-24T01:37:42.972Z,99453.63
2023-04-24T01:40:16.327Z,99452.81
2023-04-24T01:42:49.907Z,99447.03
2023-04-24T01:45:23.030Z,99447.38
2023-04-24T01:47:56.062Z,99446.00
2023-04-24T01:50:29.180Z,99445.00
2023-04-24T01:53:03.488Z,99455.09
2023-04-24T01:55:36.556Z,99451.28
2023-04-24T01:58:09.820Z,99445.34
2023-04-24T02:00:43.051Z,99442.91
2023-04-24T02:03:16.434Z,99439.38
2023-04-24T02:05:49.560Z,99439.03
2023-04-24T02:08:24.056Z,99449.50
2023-04-24T02:10:57.078Z,99450.38
2023-04-24T02:13:31.087Z,99451.44
2023-04-24T02:16:04.490Z,99459.63
2023-04-24T02:18:38.022Z,99463.19
2023-04-24T02:21:11.009Z,99457.41
2023-04-24T02:23:45.364Z,99453.69
2023-04-24T02:26:19.380Z,99445.53
2023-04-24T02:28:52.687Z,99436.09
2023-04-24T02:31:25.879Z,99437.53
2023-04-24T02:33:58.863Z,99449.47
2023-04-24T02:36:32.611Z,99452.66
2023-04-24T02:39:07.424Z,99457.97
2023-04-24T02:41:40.540Z,99468.44
2023-04-24T02:44:13.774Z,99468.69
2023-04-24T02:46:46.803Z,99473.09
2023-04-24T02:49:19.809Z,99467.44
2023-04-24T02:51:52.849Z,99469.81
2023-04-24T02:54:27.125Z,99466.53
2023-04-24T02:57:00.221Z,99458.53
2023-04-24T02:59:33.490Z,99463.50
2023-04-24T03:02:06.831Z,99462.59
2023-04-24T03:04:41.173Z,99458.47
2023-04-24T03:07:14.856Z,99463.25
2023-04-24T03:09:49.385Z,99464.03
2023-04-24T03:12:24.870Z,99457.94
2023-04-24T03:14:58.514Z,99460.84
2023-04-24T03:17:32.385Z,99462.03
2023-04-24T03:20:07.426Z,99460.22
2023-04-24T03:22:40.504Z,99467.53
2023-04-24T03:25:15.055Z,99464.16
2023-04-24T03:27:48.851Z,99461.59
2023-04-24T03:30:21.747Z,99458.78
2023-04-24T03:32:54.836Z,99464.22
2023-04-24T03:35:28.014Z,99468.56
2023-04-24T03:38:01.045Z,99462.84
2023-04-24T03:40:35.674Z,99471.97
2023-04-24T03:43:09.208Z,99470.59
2023-04-24T03:45:42.419Z,99469.78
2023-04-24T03:48:15.580Z,99463.47
2023-04-24T03:50:48.703Z,99466.19
2023-04-24T03:53:21.888Z,99463.66
2023-04-24T03:55:56.294Z,99468.09
2023-04-24T03:58:29.668Z,99467.56
2023-04-24T04:01:02.695Z,99462.94
2023-04-24T04:03:36.172Z,99471.34
2023-04-24T04:06:09.351Z,99466.38
2023-04-24T04:08:42.523Z,99473.25
2023-04-24T04:11:16.813Z,99478.25
2023-04-24T04:13:51.065Z,99480.53
2023-04-24T04:16:24.603Z,99487.13
2023-04-24T04:18:57.636Z,99490.28
2023-04-24T04:21:31.893Z,99491.75
2023-04-24T04:24:06.525Z,99495.81
2023-04-24T04:26:41.756Z,99497.69
2023-04-24T04:29:15.882Z,99497.59
2023-04-24T04:31:50.523Z,99500.44
2023-04-24T04:34:23.668Z,99496.69
2023-04-24T04:36:56.632Z,99504.59
2023-04-24T04:39:30.960Z,99500.31
2023-04-24T04:42:05.732Z,99496.06
2023-04-24T04:44:39.587Z,99498.38
2023-04-24T04:47:12.502Z,99497.56
2023-04-24T04:49:46.199Z,99503.22
2023-04-24T04:52:19.226Z,99497.28
2023-04-24T04:54:52.406Z,99496.94
2023-04-24T04:57:27.208Z,99495.06
2023-04-24T05:00:01.231Z,99495.25
2023-04-24T05:02:34.376Z,99503.53
2023-04-24T05:05:08.399Z,99502.56
2023-04-24T05:07:41.675Z,99508.00
2023-04-24T05:10:14.998Z,99505.66
2023-04-24T05:12:50.584Z,99503.78
2023-04-24T05:15:24.069Z,99501.41
2023-04-24T05:17:58.052Z,99495.94
2023-04-24T05:20:31.415Z,99501.03
2023-04-24T05:23:04.742Z,99501.25
2023-04-24T05:25:39.730Z,99498.34
2023-04-24T05:28:14.320Z,99495.41
2023-04-24T05:30:47.288Z,99504.47
2023-04-24T05:33:20.706Z,99499.78
2023-04-24T05:35:53.883Z,99503.16
2023-04-24T05:38:27.052Z,99505.41
2023-04-24T05:41:00.863Z,99507.13
2023-04-24T05:43:35.727Z,99509.97
2023-04-24T05:46:08.863Z,99511.25
2023-04-24T05:48:42.019Z,99509.53
2023-04-24T05:51:15.306Z,99512.06
2023-04-24T05:53:48.722Z,99513.81
2023-04-24T05:56:22.585Z,99508.47
2023-04-24T05:58:57.038Z,99512.81
2023-04-24T06:01:29.931Z,99512.47
2023-04-24T06:04:03.612Z,99507.97
2023-04-24T06:06:37.305Z,99512.13
2023-04-24T06:09:10.613Z,99503.72
2023-04-24T06:11:44.199Z,99500.00
2023-04-24T06:14:18.735Z,99490.22
2023-04-24T06:16:52.120Z,99492.81
2023-04-24T06:19:25.139Z,99481.59
2023-04-24T06:21:58.057Z,99489.41
2023-04-24T06:24:31.523Z,99494.50
2023-04-24T06:27:04.937Z,99488.16
2023-04-24T06:29:39.366Z,99486.38
2023-04-24T06:32:12.509Z,99485.81
2023-04-24T06:34:45.631Z,99484.47
2023-04-24T06:37:18.717Z,99492.84
2023-04-24T06:39:51.820Z,99489.63
2023-04-24T06:42:25.830Z,99483.94
2023-04-24T06:45:00.537Z,99484.88
2023-04-24T06:47:33.540Z,99476.91
2023-04-24T06:50:07.051Z,99471.13
2023-04-24T06:52:40.103Z,99470.34
2023-04-24T06:55:13.294Z,99467.09
2023-04-24T06:57:46.723Z,99468.72
2023-04-24T07:00:21.259Z,99476.84
2023-04-24T07:02:54.465Z,99468.44
2023-04-24T07:05:29.291Z,99471.00
2023-04-24T07:08:02.585Z,99470.19
2023-04-24T07:10:36.439Z,99469.28
2023-04-24T07:13:10.571Z,99478.78
2023-04-24T07:15:45.202Z,99466.44
2023-04-24T07:18:19.092Z,99464.81
2023-04-24T07:20:52.162Z,99461.47
2023-04-24T07:23:25.494Z,99464.56
2023-04-24T07:25:59.226Z,99466.69
2023-04-24T07:28:32.574Z,99459.09
2023-04-24T07:31:07.053Z,99460.25
2023-04-24T07:33:40.210Z,99451.78
2023-04-24T07:36:18.028Z,99456.97
2023-04-24T07:38:51.476Z,99458.78
2023-04-24T07:41:25.391Z,99467.41
2023-04-24T07:43:59.441Z,99467.41
2023-04-24T07:46:34.285Z,99467.41
2023-04-24T07:49:13.446Z,99467.91
2023-04-24T07:51:47.288Z,99467.38
2023-04-24T07:54:20.414Z,99469.47
2023-04-24T07:56:53.394Z,99458.59
2023-04-24T07:59:26.469Z,99463.69
2023-04-24T08:02:02.306Z,99464.38
2023-04-24T08:04:35.921Z,99452.19
2023-04-24T08:07:09.217Z,99446.50
2023-04-24T08:09:42.693Z,99457.44
2023-04-24T08:12:17.159Z,99458.59
2023-04-24T08:14:50.800Z,99455.75
2023-04-24T08:17:25.221Z,99450.72
2023-04-24T08:20:02.671Z,99451.53
2023-04-24T08:22:36.022Z,99450.72
2023-04-24T08:25:09.432Z,99447.88
2023-04-24T08:27:43.104Z,99445.69
2023-04-24T08:30:16.472Z,99440.78
2023-04-24T08:32:51.403Z,99437.78
2023-04-24T08:35:25.070Z,99432.59
2023-04-24T08:37:58.304Z,99434.59
2023-04-24T08:40:31.906Z,99441.63
2023-04-24T08:43:05.653Z,99432.91
2023-04-24T08:45:39.524Z,99424.31
2023-04-24T08:48:27.367Z,99428.63
2023-04-24T08:51:04.864Z,99420.69
2023-04-24T08:53:38.518Z,99413.63
2023-04-24T08:56:13.547Z,99411.91
2023-04-24T08:58:46.847Z,99410.44
2023-04-24T09:01:20.692Z,99416.00
2023-04-24T09:03:55.630Z,99398.75
2023-04-24T09:06:29.089Z,99403.19
2023-04-24T09:09:04.475Z,99401.38
2023-04-24T09:11:38.877Z,99408.66
2023-04-24T09:14:13.300Z,99403.53
2023-04-24T09:16:47.363Z,99397.16
2023-04-24T09:19:23.507Z,99388.34
2023-04-24T09:21:56.886Z,99390.31
2023-04-24T09:24:30.202Z,99394.88
2023-04-24T09:27:03.900Z,99388.38
2023-04-24T09:29:37.297Z,99390.66
2023-04-24T09:32:20.889Z,99377.97
2023-04-24T09:35:09.170Z,99379.47
2023-04-24T09:37:43.528Z,99380.13
2023-04-24T09:40:18.100Z,99381.97
2023-04-24T09:42:54.431Z,99380.38
2023-04-24T09:45:29.687Z,99383.00
2023-04-24T09:48:02.947Z,99376.84
2023-04-24T09:50:37.630Z,99377.34
2023-04-24T09:53:11.872Z,99370.31
2023-04-24T09:55:49.567Z,99365.75
2023-04-24T09:58:26.992Z,99363.13
2023-04-24T10:01:00.086Z,99356.56
2023-04-24T10:03:33.433Z,99356.94
2023-04-24T10:06:10.261Z,99353.84
2023-04-24T10:08:44.084Z,99345.13
2023-04-24T10:11:27.682Z,99345.06
2023-04-24T10:14:01.795Z,99333.03
2023-04-24T10:16:36.418Z,99329.97
2023-04-24T10:19:09.777Z,99328.06
2023-04-24T10:21:47.617Z,99325.78
2023-04-24T10:24:22.089Z,99318.84
2023-04-24T10:26:55.220Z,99309.84
2023-04-24T10:29:28.636Z,99305.84
2023-04-24T10:32:02.409Z,99305.19
2023-04-24T10:34:35.699Z,99297.72
2023-04-24T10:37:10.280Z,99300.63
2023-04-24T10:39:43.420Z,99305.94
2023-04-24T10:42:17.396Z,99293.16
2023-04-24T10:44:51.181Z,99294.31
2023-04-24T10:47:24.435Z,99292.50
2023-04-24T10:50:01.051Z,99290.47
2023-04-24T10:52:47.461Z,99295.47
2023-04-24T10:55:35.716Z,99293.91
2023-04-24T10:58:08.881Z,99289.00
2023-04-24T11:00:42.633Z,99296.09
2023-04-24T11:03:26.743Z,99285.41
2023-04-24T11:06:01.471Z,99281.78
2023-04-24T11:08:40.290Z,99286.97
2023-04-24T11:11:14.579Z,99290.94
2023-04-24T11:14:05.249Z,99271.06
2023-04-24T11:16:45.675Z,99271.94
2023-04-24T11:19:26.098Z,99259.66
2023-04-24T11:22:02.635Z,99265.47
2023-04-24T11:24:40.907Z,99267.56
2023-04-24T11:27:16.154Z,99259.06
2023-04-24T11:29:51.177Z,99257.59
2023-04-24T11:32:28.815Z,99257.63
2023-04-24T11:35:03.673Z,99258.09
2023-04-24T11:37:38.269Z,99259.22
2023-04-24T11:40:14.118Z,99253.16
2023-04-24T11:42:48.078Z,99244.56
2023-04-24T11:45:23.434Z,99244.66
2023-04-24T11:47:56.983Z,99237.41
2023-04-24T11:50:30.812Z,99233.91
2023-04-24T11:53:04.363Z,99231.59
2023-04-24T11:55:39.050Z,99229.03
2023-04-24T11:58:12.248Z,99222.22
2023-04-24T12:00:46.779Z,99220.72
2023-04-24T12:03:20.229Z,99220.31
2023-04-24T12:05:53.985Z,99222.75
2023-04-24T12:08:30.907Z,99209.38
2023-04-24T12:11:06.315Z,99209.31
2023-04-24T12:13:40.019Z,99212.84
2023-04-24T12:16:13.759Z,99210.41
2023-04-24T12:18:47.572Z,99199.97
2023-04-24T12:21:23.160Z,99205.13
2023-04-24T12:23:56.836Z,99205.59
2023-04-24T12:26:31.223Z,99202.84
2023-04-24T12:29:05.569Z,99185.41
2023-04-24T12:31:38.904Z,99193.72
2023-04-24T12:34:19.577Z,99184.09
2023-04-24T12:36:52.983Z,99182.03
2023-04-24T12:39:27.808Z,99171.75
2023-04-24T12:42:02.768Z,99166.75
2023-04-24T12:44:38.165Z,99169.03
2023-04-24T12:47:12.037Z,99150.00
2023-04-24T12:49:46.122Z,99161.25
2023-04-24T12:52:19.170Z,99152.09
2023-04-24T12:54:52.659Z,99143.25
2023-04-24T12:57:27.634Z,99139.91
2023-04-24T13:00:01.036Z,99140.75
2023-04-24T13:02:34.484Z,99130.53
2023-04-24T13:05:08.496Z,99130.94
2023-04-24T13:07:41.903Z,99130.19
2023-04-24T13:10:15.422Z,99134.66
2023-04-24T13:12:51.200Z,99128.78
2023-04-24T13:15:24.625Z,99123.72
2023-04-24T13:17:58.173Z,99126.47
2023-04-24T13:20:31.433Z,99123.38
2023-04-24T13:23:04.506Z,99111.31
2023-04-24T13:25:38.491Z,99118.81
2023-04-24T13:28:13.462Z,99118.97
2023-04-24T13:30:46.711Z,99115.66
2023-04-24T13:33:19.926Z,99120.81
2023-04-24T13:35:53.267Z,99116.28
2023-04-24T13:38:26.242Z,99119.34
2023-04-24T13:40:59.711Z,99111.84
2023-04-24T13:43:34.546Z,99122.25
2023-04-24T13:46:07.687Z,99116.03
2023-04-24T13:48:40.947Z,99124.06
2023-04-24T13:51:14.061Z,99119.63
2023-04-24T13:53:47.470Z,99114.13
2023-04-24T13:56:21.321Z,99116.25
2023-04-24T13:58:56.206Z,99120.88
2023-04-24T14:01:29.801Z,99119.63
2023-04-24T14:04:03.415Z,99115.72
2023-04-24T14:06:36.931Z,99111.56
2023-04-24T14:09:09.880Z,99101.66
2023-04-24T14:11:45.617Z,99102.88
2023-04-24T14:14:20.632Z,99109.53
2023-04-24T14:16:55.512Z,99100.44
2023-04-24T14:19:29.352Z,99100.00
2023-04-24T14:22:02.977Z,99095.34
2023-04-24T14:24:36.180Z,99085.66
2023-04-24T14:27:09.699Z,99079.06
2023-04-24T14:29:45.344Z,99075.50
2023-04-24T14:32:18.548Z,99091.31
2023-04-24T14:34:51.714Z,99075.81
2023-04-24T14:37:25.532Z,99084.84
2023-04-24T14:40:11.731Z,99069.28
2023-04-24T14:42:52.717Z,99075.59
2023-04-24T14:45:26.985Z,99085.56
2023-04-24T14:48:00.938Z,99079.16
2023-04-24T14:50:34.069Z,99083.50
2023-04-24T14:53:09.276Z,99079.72
2023-04-24T14:55:42.292Z,99084.63
2023-04-24T14:58:15.484Z,99080.00
2023-04-24T15:00:52.872Z,99072.84
2023-04-24T15:03:28.011Z,99073.84
2023-04-24T15:06:02.045Z,99071.03
2023-04-24T15:08:35.390Z,99068.06
2023-04-24T15:11:08.592Z,99062.38
2023-04-24T15:13:42.620Z,99062.25
2023-04-24T15:16:18.177Z,99062.38
2023-04-24T15:18:51.425Z,99061.03
2023-04-24T15:21:27.064Z,99049.84
2023-04-24T15:24:00.107Z,99051.09
2023-04-24T15:26:33.092Z,99053.06
2023-04-24T15:29:06.354Z,99046.03
2023-04-24T15:31:41.585Z,99035.06
2023-04-24T15:34:14.780Z,99033.06
2023-04-24T15:36:47.951Z,99036.09
2023-04-24T15:39:24.472Z,99031.09
2023-04-24T15:41:57.732Z,99028.06
2023-04-24T15:44:31.353Z,99023.97
2023-04-24T15:47:05.876Z,99025.00
2023-04-24T15:49:38.874Z,99018.25
2023-04-24T15:52:11.878Z,99010.63
2023-04-24T15:54:44.887Z,99014.59
2023-04-24T15:57:18.103Z,99010.41
2023-04-24T15:59:51.580Z,99008.28
2023-04-24T16:02:26.106Z,98999.69
2023-04-24T16:04:59.530Z,98998.34
2023-04-24T16:07:32.516Z,98997.78
2023-04-24T16:10:05.767Z,98985.75
2023-04-24T16:12:38.870Z,98983.13
2023-04-24T16:15:12.616Z,98982.91
2023-04-24T16:17:49.691Z,98983.75
2023-04-24T16:20:22.840Z,98983.91
2023-04-24T16:22:55.783Z,98977.72
2023-04-24T16:25:28.889Z,98980.22
2023-04-24T16:28:01.905Z,98970.53
2023-04-24T16:30:36.630Z,98961.25
2023-04-24T16:33:11.610Z,98959.66
2023-04-24T16:35:45.440Z,98964.94
2023-04-24T16:38:18.385Z,98960.88
2023-04-24T16:40:51.768Z,98963.75
2023-04-24T16:43:24.977Z,98970.16
2023-04-24T16:45:58.148Z,98969.97
2023-04-24T16:48:33.546Z,98974.28
2023-04-24T16:51:06.615Z,98985.72
2023-04-24T16:53:39.665Z,98980.91
2023-04-24T16:56:14.575Z,98985.59
2023-04-24T16:58:47.866Z,98982.88
2023-04-24T17:01:21.272Z,98987.19
2023-04-24T17:03:56.164Z,98984.63
2023-04-24T17:06:29.408Z,98978.81
2023-04-24T17:09:02.301Z,98986.47
2023-04-24T17:11:35.414Z,98993.72
2023-04-24T17:14:11.184Z,98995.28
2023-04-24T17:16:46.157Z,98995.81
2023-04-24T17:19:20.493Z,98990.56
2023-04-24T17:21:53.345Z,98998.81
2023-04-24T17:24:26.320Z,98999.13
2023-04-24T17:27:08.103Z,98998.50
2023-04-24T17:29:44.899Z,98996.09
2023-04-24T17:32:18.136Z,98993.72
2023-04-24T17:34:52.725Z,98995.22
2023-04-24T17:37:26.120Z,98995.78
2023-04-24T17:39:59.141Z,99006.19
2023-04-24T17:42:32.507Z,99003.75
2023-04-24T17:45:07.527Z,99003.16
2023-04-24T17:47:41.148Z,99001.19
2023-04-24T17:50:15.988Z,99002.88
2023-04-24T17:52:49.269Z,99003.09
2023-04-24T17:55:22.497Z,98997.84
2023-04-24T17:57:57.034Z,99006.53
2023-04-24T18:00:30.385Z,99004.94
2023-04-24T18:03:04.220Z,99007.59
2023-04-24T18:05:39.885Z,99003.56
2023-04-24T18:08:13.215Z,99002.66
2023-04-24T18:10:49.548Z,99008.69
2023-04-24T18:13:23.070Z,99011.25
2023-04-24T18:15:56.428Z,99014.78
2023-04-24T18:18:32.223Z,99013.56
2023-04-24T18:21:07.202Z,99008.41
2023-04-24T18:23:42.010Z,99011.19
2023-04-24T18:26:17.139Z,99011.69
2023-04-24T18:28:50.514Z,99004.50
2023-04-24T18:31:24.101Z,99005.69
2023-04-24T18:33:57.419Z,99009.41
2023-04-24T18:36:36.173Z,99011.47
2023-04-24T18:39:09.190Z,99017.56
2023-04-24T18:41:44.879Z,99007.59
2023-04-24T18:44:18.903Z,99020.13
2023-04-24T18:46:52.153Z,99022.25
2023-04-24T18:49:25.262Z,99026.59
2023-04-24T18:52:01.672Z,99020.66
2023-04-24T18:54:39.455Z,99024.66
2023-04-24T18:57:12.863Z,99030.25
2023-04-24T18:59:49.304Z,99024.25
2023-04-24T19:02:22.633Z,99018.06
2023-04-24T19:04:55.867Z,99024.78
2023-04-24T19:07:30.342Z,99028.06
2023-04-24T19:10:03.406Z,99027.59
2023-04-24T19:12:38.630Z,99027.94
2023-04-24T19:15:13.052Z,99026.31
2023-04-24T19:17:50.861Z,99027.09
2023-04-24T19:20:24.132Z,99024.25
2023-04-24T19:22:59.135Z,99023.97
2023-04-24T19:25:32.508Z,99022.22
2023-04-24T19:28:05.838Z,99024.38
2023-04-24T19:30:38.931Z,99010.31
2023-04-24T19:33:12.023Z,99011.09
2023-04-24T19:35:45.346Z,99017.56
2023-04-24T19:38:20.285Z,99011.88
2023-04-24T19:40:53.510Z,99012.13
2023-04-24T19:43:26.747Z,99004.69
2023-04-24T19:46:00.978Z,99008.16
2023-04-24T19:48:34.162Z,99012.25
2023-04-24T19:51:07.372Z,99015.25
2023-04-24T19:53:43.591Z,99002.75
2023-04-24T19:56:16.955Z,99011.59
2023-04-24T19:58:50.096Z,99003.75
2023-04-24T20:01:23.290Z,99007.78
2023-04-24T20:03:56.716Z,99004.03
2023-04-24T20:06:29.901Z,98998.16
2023-04-24T20:09:05.875Z,98996.66
2023-04-24T20:11:40.916Z,98990.75
2023-04-24T20:14:14.159Z,99001.69
2023-04-24T20:16:47.255Z,98984.97
2023-04-24T20:19:20.202Z,98985.47
2023-04-24T20:21:53.366Z,98985.28
2023-04-24T20:24:28.024Z,98975.09
2023-04-24T20:27:01.356Z,98981.53
2023-04-24T20:29:34.896Z,98986.75
2023-04-24T20:32:07.875Z,98976.88
2023-04-24T20:34:40.863Z,98973.16
2023-04-24T20:37:13.905Z,98976.56
2023-04-24T20:39:49.732Z,98982.50
2023-04-24T20:42:23.209Z,98989.81
2023-04-24T20:44:56.207Z,98982.22
2023-04-24T20:47:29.607Z,98975.34
2023-04-24T20:50:04.234Z,98981.78
2023-04-24T20:52:37.347Z,98974.47
2023-04-24T20:55:12.349Z,98977.91
2023-04-24T20:57:45.245Z,98977.91
2023-04-24T21:00:18.167Z,98976.06
2023-04-24T21:02:51.146Z,98983.03
2023-04-24T21:05:24.231Z,98979.94
2023-04-24T21:07:57.767Z,98982.25
2023-04-24T21:10:32.234Z,98986.69
2023-04-24T21:13:05.402Z,98977.19
2023-04-24T21:15:38.326Z,98981.84
2023-04-24T21:18:11.210Z,98984.34
2023-04-24T21:20:44.191Z,98986.81
2023-04-24T21:23:17.391Z,98986.91
2023-04-24T21:25:52.719Z,98977.88
2023-04-24T21:28:26.051Z,98979.69
2023-04-24T21:30:59.108Z,98980.81
2023-04-24T21:33:31.966Z,98981.81
2023-04-24T21:36:05.265Z,98982.91
2023-04-24T21:38:39.891Z,98975.94
2023-04-24T21:41:14.525Z,98980.88
2023-04-24T21:43:48.397Z,98985.28
2023-04-24T21:46:23.542Z,98989.53
2023-04-24T21:48:56.619Z,98988.09
2023-04-24T21:51:29.535Z,98983.34
2023-04-24T21:54:02.641Z,98988.84
2023-04-24T21:56:37.013Z,98976.16
2023-04-24T21:59:10.055Z,98978.88
2023-04-24T22:01:42.946Z,98992.22
2023-04-24T22:04:16.115Z,98993.19
2023-04-24T22:06:49.398Z,98996.38
2023-04-24T22:09:22.724Z,98988.66
2023-04-24T22:11:56.885Z,98991.59
2023-04-24T22:14:29.958Z,99000.22
2023-04-24T22:17:03.110Z,99027.66
2023-04-24T22:19:35.919Z,99018.91
2023-04-24T22:22:08.922Z,99024.09
2023-04-24T22:24:41.990Z,99027.75
2023-04-24T22:27:16.510Z,99026.13
2023-04-24T22:29:49.267Z,99022.22
2023-04-24T22:32:22.199Z,99011.38
2023-04-24T22:34:55.110Z,99019.59
2023-04-24T22:37:27.992Z,99013.16
2023-04-24T22:40:01.617Z,98999.06
2023-04-24T22:42:36.635Z,98996.25
2023-04-24T22:45:11.659Z,98999.13
2023-04-24T22:47:44.595Z,99001.00
2023-04-24T22:50:18.260Z,99006.00
2023-04-24T22:52:50.967Z,99015.06
2023-04-24T22:55:24.075Z,99008.75
2023-04-24T22:57:58.473Z,99014.94
2023-04-24T23:00:31.376Z,99012.91
2023-04-24T23:03:04.437Z,99011.75
2023-04-24T23:05:37.320Z,99010.28
2023-04-24T23:08:10.165Z,99023.50
2023-04-24T23:10:43.290Z,99019.19
2023-04-24T23:13:17.645Z,99020.34
2023-04-24T23:15:51.145Z,99025.56
2023-04-24T23:18:25.393Z,99041.31
2023-04-24T23:20:58.820Z,99028.91
2023-04-24T23:23:31.953Z,99025.91
2023-04-24T23:26:05.085Z,99034.13
2023-04-24T23:28:40.972Z,99031.97
2023-04-24T23:31:14.054Z,99017.84
2023-04-24T23:33:47.400Z,99023.56
2023-04-24T23:36:20.456Z,99022.72
2023-04-24T23:38:53.230Z,99011.16
2023-04-24T23:41:26.868Z,99006.47
2023-04-24T23:44:01.707Z,98999.78
2023-04-24T23:46:34.905Z,98998.75
2023-04-24T23:49:08.956Z,98995.22
2023-04-24T23:51:42.307Z,98988.34
2023-04-24T23:54:15.282Z,98986.53
2023-04-24T23:56:48.824Z,98978.66
2023-04-24T23:59:23.184Z,98980.00
